Time;durP1;ratioP1;P1;durP2;ratioP2;P2;SDS_P1;SDS_P2;PMS_P1;PMS_P2;Temp;Humidity;BMP_temperature;BMP_pressure;BME280_temperature;BME280_humidity;BME280_pressure;Samples;Min_cycle;Max_cycle;Signal;HPM_P1;HPM_P2
2021/11/22 00:00:59;;;;;;;34.45;16.95;;;;;;;6.92;100.00;100348.91;5029227;28;20041;-53
2021/11/22 00:03:27;;;;;;;30.83;17.05;;;;;;;6.93;100.00;100355.88;5031090;28;20646;-53
2021/11/22 00:05:53;;;;;;;33.00;15.85;;;;;;;6.77;100.00;100333.63;5032114;28;20712;-53
2021/11/22 00:08:20;;;;;;;35.17;17.05;;;;;;;6.92;100.00;100364.72;5030089;28;20064;-53
2021/11/22 00:10:48;;;;;;;36.22;17.50;;;;;;;6.88;100.00;100363.94;5037426;28;20044;-53
2021/11/22 00:13:15;;;;;;;32.28;17.27;;;;;;;6.91;100.00;100365.63;5029944;28;20046;-53
2021/11/22 00:15:41;;;;;;;34.25;16.50;;;;;;;6.93;100.00;100358.50;5030716;28;20052;-55
2021/11/22 00:18:08;;;;;;;29.05;16.25;;;;;;;6.90;100.00;100361.28;5032229;28;20049;-53
2021/11/22 00:20:34;;;;;;;32.55;16.10;;;;;;;6.90;100.00;100361.28;5035869;28;20056;-54
2021/11/22 00:23:01;;;;;;;32.60;15.93;;;;;;;6.87;100.00;100362.22;5035703;28;20435;-54
2021/11/22 00:25:28;;;;;;;29.35;16.65;;;;;;;6.85;100.00;100361.41;5035184;28;20057;-52
2021/11/22 00:27:55;;;;;;;28.77;15.77;;;;;;;6.85;100.00;100366.66;5031523;28;20045;-53
2021/11/22 00:30:21;;;;;;;30.48;15.80;;;;;;;6.84;100.00;100366.72;5031397;28;20049;-52
2021/11/22 00:32:48;;;;;;;34.35;16.48;;;;;;;6.85;100.00;100358.78;5032350;28;20053;-53
2021/11/22 00:35:15;;;;;;;33.17;16.83;;;;;;;6.75;100.00;100348.59;5033484;28;20060;-52
2021/11/22 00:37:44;;;;;;;32.03;16.02;;;;;;;6.83;100.00;100365.00;5033615;28;20826;-52
2021/11/22 00:40:13;;;;;;;32.65;15.55;;;;;;;6.79;100.00;100369.50;5029881;28;20139;-53
2021/11/22 00:42:43;;;;;;;30.92;16.05;;;;;;;6.77;100.00;100376.56;5036912;28;20057;-54
2021/11/22 00:45:10;;;;;;;30.38;15.80;;;;;;;6.74;100.00;100370.56;5031428;28;20061;-53
2021/11/22 00:47:37;;;;;;;33.63;15.93;;;;;;;6.75;100.00;100374.91;5028239;28;20053;-54
2021/11/22 00:50:04;;;;;;;27.27;15.00;;;;;;;6.73;100.00;100374.97;5031875;28;20037;-53
2021/11/22 00:52:31;;;;;;;26.95;14.32;;;;;;;6.73;100.00;100382.88;5042538;28;20049;-51
2021/11/22 00:54:58;;;;;;;29.05;15.23;;;;;;;6.72;100.00;100372.38;5035812;28;20040;-51
2021/11/22 00:57:24;;;;;;;28.05;14.48;;;;;;;6.77;100.00;100378.38;5027843;28;20065;-52
2021/11/22 00:59:51;;;;;;;27.73;14.40;;;;;;;6.79;100.00;100374.75;5030324;28;20036;-54
2021/11/22 01:02:18;;;;;;;33.17;14.43;;;;;;;6.77;100.00;100381.00;5030761;28;20045;-53
2021/11/22 01:04:44;;;;;;;27.65;14.10;;;;;;;6.77;100.00;100387.09;5025541;28;20099;-55
2021/11/22 01:07:11;;;;;;;30.10;14.80;;;;;;;6.74;100.00;100391.63;5039543;28;20045;-55
2021/11/22 01:09:37;;;;;;;25.27;13.38;;;;;;;6.67;100.00;100386.53;5019929;28;20053;-52
2021/11/22 01:12:04;;;;;;;24.83;13.27;;;;;;;6.63;100.00;100389.28;5027283;28;20041;-53
2021/11/22 01:14:31;;;;;;;24.38;12.55;;;;;;;6.62;100.00;100396.31;5033609;28;20052;-53
2021/11/22 01:16:57;;;;;;;24.85;12.75;;;;;;;6.60;100.00;100395.53;5029330;28;20041;-54
2021/11/22 01:19:24;;;;;;;24.30;12.35;;;;;;;6.60;100.00;100399.94;5029686;28;20494;-52
2021/11/22 01:21:50;;;;;;;23.75;12.20;;;;;;;6.58;100.00;100397.34;5037022;28;20049;-53
2021/11/22 01:24:17;;;;;;;25.60;12.48;;;;;;;6.57;100.00;100400.03;5028115;28;20046;-52
2021/11/22 01:26:43;;;;;;;20.95;10.07;;;;;;;6.56;100.00;100393.03;5030957;28;20182;-52
2021/11/22 01:29:10;;;;;;;15.63;8.50;;;;;;;6.55;100.00;100402.72;5030100;28;20049;-52
2021/11/22 01:31:37;;;;;;;12.65;8.07;;;;;;;6.54;100.00;100406.25;5032252;28;20043;-52
2021/11/22 01:34:04;;;;;;;15.13;8.18;;;;;;;6.53;100.00;100412.41;5032756;28;20041;-53
2021/11/22 01:36:31;;;;;;;15.98;6.80;;;;;;;6.51;100.00;100419.47;5030738;28;20048;-55
2021/11/22 01:38:57;;;;;;;15.10;6.97;;;;;;;6.48;100.00;100419.56;5024592;28;20056;-52
2021/11/22 01:41:24;;;;;;;15.90;6.30;;;;;;;6.53;100.00;100428.19;5039640;28;20439;-53
2021/11/22 01:43:50;;;;;;;9.70;4.97;;;;;;;6.59;100.00;100428.03;5037948;28;20049;-53
2021/11/22 01:46:20;;;;;;;11.55;5.07;;;;;;;6.55;100.00;100428.16;5036360;28;20124;-54
2021/11/22 01:48:47;;;;;;;11.98;5.20;;;;;;;6.59;99.73;100435.91;5032128;28;22168;-54
2021/11/22 01:51:14;;;;;;;10.60;4.47;;;;;;;6.56;99.39;100425.47;5031864;28;20049;-53
2021/11/22 01:53:41;;;;;;;13.05;4.57;;;;;;;6.50;99.24;100428.28;5030949;28;20038;-53
2021/11/22 01:56:17;;;;;;;11.02;4.18;;;;;;;6.53;98.60;100433.47;5025715;28;20569;-54
2021/11/22 01:58:43;;;;;;;6.85;3.40;;;;;;;6.47;98.06;100433.63;5028558;28;20057;-51
2021/11/22 02:01:10;;;;;;;12.20;3.38;;;;;;;6.52;97.24;100442.25;5026918;28;20056;-53
2021/11/22 02:03:37;;;;;;;10.10;3.45;;;;;;;6.60;96.91;100442.91;5033479;28;20155;-54
2021/11/22 02:06:05;;;;;;;18.30;3.60;;;;;;;6.63;96.10;100441.91;5032064;28;20049;-52
2021/11/22 02:08:32;;;;;;;7.15;3.03;;;;;;;6.60;95.95;100450.81;5026335;28;20053;-52
2021/11/22 02:10:58;;;;;;;8.88;2.92;;;;;;;6.54;96.10;100452.72;5027530;28;20038;-52
2021/11/22 02:13:25;;;;;;;12.70;3.47;;;;;;;6.55;96.29;100457.09;5032948;28;20096;-53
2021/11/22 02:15:52;;;;;;;6.50;2.90;;;;;;;6.44;95.65;100436.38;5036112;28;20529;-51
2021/11/22 02:18:18;;;;;;;8.13;3.15;;;;;;;6.53;95.92;100462.41;5030989;28;20051;-56
2021/11/22 02:20:45;;;;;;;9.20;2.92;;;;;;;6.52;95.55;100451.91;5034947;28;20042;-53
2021/11/22 02:23:13;;;;;;;9.65;2.95;;;;;;;6.48;95.78;100459.03;5033262;28;20056;-52
2021/11/22 02:25:41;;;;;;;9.48;2.97;;;;;;;6.50;95.71;100459.84;5013134;28;20056;-54
2021/11/22 02:28:09;;;;;;;8.65;3.15;;;;;;;6.53;95.44;100472.91;5027740;28;20045;-52
2021/11/22 02:30:42;;;;;;;8.60;2.60;;;;;;;6.50;95.21;100472.13;5026680;28;20052;-54
2021/11/22 02:33:19;;;;;;;8.43;3.10;;;;;;;6.52;95.08;100467.69;5034077;28;20123;-55
2021/11/22 02:35:54;;;;;;;12.40;3.17;;;;;;;6.55;94.80;100470.25;5033522;28;20045;-52
2021/11/22 02:38:35;;;;;;;8.32;2.72;;;;;;;6.61;93.95;100477.97;5034831;28;20037;-52
2021/11/22 02:41:05;;;;;;;13.35;3.33;;;;;;;6.57;93.81;100469.31;5025778;28;20052;-54
2021/11/22 02:43:34;;;;;;;9.45;3.42;;;;;;;6.58;93.77;100472.78;5035654;28;20499;-51
2021/11/22 02:46:01;;;;;;;11.25;2.85;;;;;;;6.52;93.90;100478.22;5034482;28;20049;-53
2021/11/22 02:48:28;;;;;;;7.88;3.00;;;;;;;6.49;94.01;100473.91;5036513;28;20046;-53
2021/11/22 02:50:54;;;;;;;9.85;2.80;;;;;;;6.49;94.35;100480.94;5033088;28;20060;-54
2021/11/22 02:53:24;;;;;;;9.05;2.85;;;;;;;6.55;94.03;100476.38;5034414;28;20099;-55
2021/11/22 02:55:52;;;;;;;9.53;2.87;;;;;;;6.55;93.17;100479.00;5039800;28;20065;-53
2021/11/22 02:58:23;;;;;;;8.73;2.95;;;;;;;6.53;93.24;100472.91;5033613;28;20068;-52
2021/11/22 03:00:50;;;;;;;8.82;2.50;;;;;;;6.53;93.34;100488.69;5031235;28;20045;-53
2021/11/22 03:03:18;;;;;;;15.07;3.05;;;;;;;6.54;93.15;100485.16;5039252;28;20037;-54
2021/11/22 03:05:44;;;;;;;8.30;3.00;;;;;;;6.56;92.83;100490.38;5033312;28;20566;-52
2021/11/22 03:08:11;;;;;;;6.97;2.78;;;;;;;6.55;92.33;100486.91;5029153;28;20061;-53
2021/11/22 03:10:38;;;;;;;10.65;2.95;;;;;;;6.58;92.24;100499.97;5032510;28;20448;-53
2021/11/22 03:13:05;;;;;;;9.23;3.33;;;;;;;6.51;92.46;100493.13;5039578;28;20075;-53
2021/11/22 03:15:33;;;;;;;7.95;2.70;;;;;;;6.37;92.92;100476.91;5038730;28;20655;-54
2021/11/22 03:17:59;;;;;;;11.55;3.15;;;;;;;6.44;93.32;100502.13;5030684;28;20099;-53
2021/11/22 03:20:26;;;;;;;10.40;3.20;;;;;;;6.43;93.09;100503.03;5032022;28;20049;-54
2021/11/22 03:22:52;;;;;;;10.88;3.10;;;;;;;6.45;93.13;100506.50;5034904;28;20049;-54
2021/11/22 03:25:19;;;;;;;10.68;2.85;;;;;;;6.45;92.41;100511.75;5031009;28;20050;-57
2021/11/22 03:27:46;;;;;;;11.82;2.90;;;;;;;6.43;92.72;100515.31;5034576;28;20525;-53
2021/11/22 03:30:14;;;;;;;10.13;2.97;;;;;;;6.44;93.19;100519.69;5027320;28;20053;-53
2021/11/22 03:32:42;;;;;;;11.55;2.95;;;;;;;6.40;92.70;100512.78;5041535;28;20482;-52
2021/11/22 03:35:09;;;;;;;8.32;2.50;;;;;;;6.34;93.48;100519.91;5037223;28;20044;-54
2021/11/22 03:37:36;;;;;;;16.42;2.83;;;;;;;6.36;93.32;100522.50;5035388;28;20689;-53
2021/11/22 03:40:03;;;;;;;12.95;3.42;;;;;;;6.41;92.72;100528.53;5033636;28;20053;-53
2021/11/22 03:42:38;;;;;;;15.98;3.47;;;;;;;6.37;92.76;100518.13;5040431;28;20094;-54
2021/11/22 03:45:07;;;;;;;16.75;3.72;;;;;;;6.36;93.46;100533.03;5038178;28;20055;-53
2021/11/22 03:47:34;;;;;;;14.77;3.85;;;;;;;6.35;93.20;100533.94;5033526;28;20041;-51
2021/11/22 03:50:01;;;;;;;9.75;2.90;;;;;;;6.31;93.35;100535.78;5029950;28;20045;-52
2021/11/22 03:52:27;;;;;;;12.60;3.55;;;;;;;6.38;92.95;100539.13;5031374;28;20049;-52
2021/11/22 03:54:54;;;;;;;14.55;3.38;;;;;;;6.36;92.82;100540.94;5033802;28;20043;-54
2021/11/22 03:57:20;;;;;;;11.05;2.95;;;;;;;6.33;92.84;100547.13;5036136;28;20502;-52
2021/11/22 03:59:47;;;;;;;13.95;3.25;;;;;;;6.36;92.42;100554.06;5030660;28;20574;-52
2021/11/22 04:02:13;;;;;;;14.63;3.30;;;;;;;6.41;91.61;100549.56;5031079;28;20778;-53
2021/11/22 04:04:40;;;;;;;12.35;3.35;;;;;;;6.20;91.97;100536.97;5035428;28;20051;-52
2021/11/22 04:07:06;;;;;;;11.73;3.28;;;;;;;6.28;91.65;100549.03;5040414;28;20044;-53
2021/11/22 04:09:35;;;;;;;12.40;3.20;;;;;;;6.34;91.42;100558.50;5025913;28;20838;-53
2021/11/22 04:12:01;;;;;;;9.82;3.38;;;;;;;6.32;91.84;100570.84;5037771;28;20052;-53
2021/11/22 04:14:28;;;;;;;10.77;4.00;;;;;;;6.25;92.06;100577.19;5033468;28;20045;-55
2021/11/22 04:16:54;;;;;;;12.65;3.30;;;;;;;6.29;92.43;100569.19;5037888;28;20513;-53
2021/11/22 04:19:21;;;;;;;14.82;4.03;;;;;;;6.25;92.01;100583.31;5033450;28;20398;-54
2021/11/22 04:21:47;;;;;;;12.10;3.50;;;;;;;6.25;91.65;100583.31;5040082;28;20407;-52
2021/11/22 04:24:14;;;;;;;7.40;3.28;;;;;;;6.19;92.33;100579.94;5031873;28;20128;-54
2021/11/22 04:26:41;;;;;;;10.52;3.38;;;;;;;6.17;92.81;100587.00;5038186;28;20047;-54
2021/11/22 04:29:07;;;;;;;17.83;4.07;;;;;;;6.13;92.97;100594.16;5035740;28;20053;-52
2021/11/22 04:31:34;;;;;;;14.60;3.55;;;;;;;6.10;92.96;100590.72;5031711;28;20042;-53
2021/11/22 04:34:01;;;;;;;10.40;3.35;;;;;;;6.15;92.68;100588.81;5041747;28;20388;-53
2021/11/22 04:36:27;;;;;;;11.85;3.30;;;;;;;6.15;92.11;100596.69;5029966;28;20041;-53
2021/11/22 04:38:54;;;;;;;11.52;3.83;;;;;;;6.12;92.10;100597.66;5035796;28;20457;-53
2021/11/22 04:41:21;;;;;;;11.25;3.67;;;;;;;6.12;92.55;100597.66;5034935;28;20041;-52
2021/11/22 04:43:47;;;;;;;8.23;3.53;;;;;;;6.06;92.74;100610.09;5036978;28;20151;-52
2021/11/22 04:46:14;;;;;;;11.55;3.92;;;;;;;6.03;92.52;100605.78;5040152;28;20049;-55
2021/11/22 04:48:41;;;;;;;8.65;3.72;;;;;;;6.07;92.73;100611.81;5040444;28;20075;-52
2021/11/22 04:51:07;;;;;;;13.25;3.92;;;;;;;6.02;92.66;100619.81;5033537;28;20529;-53
2021/11/22 04:53:34;;;;;;;13.70;3.80;;;;;;;6.04;92.09;100617.16;5038521;28;20048;-53
2021/11/22 04:56:00;;;;;;;12.07;3.85;;;;;;;5.99;91.97;100628.63;5037206;28;20052;-53
2021/11/22 04:58:27;;;;;;;10.82;3.67;;;;;;;5.96;92.19;100630.50;5036434;28;20048;-54
2021/11/22 05:00:53;;;;;;;14.02;4.05;;;;;;;5.97;92.72;100638.34;5030625;28;20041;-53
2021/11/22 05:03:20;;;;;;;13.02;4.00;;;;;;;5.94;92.06;100640.19;5019665;28;20106;-53
2021/11/22 05:05:47;;;;;;;13.30;4.28;;;;;;;5.89;92.49;100658.69;5026806;28;20943;-53
2021/11/22 05:08:13;;;;;;;12.48;4.38;;;;;;;5.95;91.85;100653.28;5039164;28;20053;-53
2021/11/22 05:10:42;;;;;;;12.65;4.10;;;;;;;5.92;91.42;100663.88;5029993;28;20494;-53
2021/11/22 05:13:11;;;;;;;13.85;4.30;;;;;;;5.91;90.96;100661.28;5033766;28;20068;-53
2021/11/22 05:15:39;;;;;;;15.60;4.70;;;;;;;5.83;91.49;100671.06;5037573;28;20036;-52
2021/11/22 05:18:08;;;;;;;15.75;4.55;;;;;;;5.81;91.36;100679.00;5021798;28;20064;-53
2021/11/22 05:20:37;;;;;;;10.38;4.20;;;;;;;5.78;91.44;100673.81;5026243;28;20052;-53
2021/11/22 05:23:04;;;;;;;10.80;4.25;;;;;;;5.76;91.39;100677.38;5031857;28;20072;-52
2021/11/22 05:25:31;;;;;;;8.30;4.40;;;;;;;5.78;90.90;100675.56;5028363;28;20045;-53
2021/11/22 05:27:57;;;;;;;10.00;4.57;;;;;;;5.71;90.81;100681.84;5032060;28;20053;-54
2021/11/22 05:30:27;;;;;;;16.67;4.85;;;;;;;5.55;91.30;100674.31;5025886;28;20041;-56
2021/11/22 05:32:56;;;;;;;14.00;4.68;;;;;;;5.59;91.46;100686.50;5034609;28;20052;-52
2021/11/22 05:35:25;;;;;;;11.70;5.10;;;;;;;5.58;91.50;100690.00;5031184;28;20098;-54
2021/11/22 05:37:53;;;;;;;12.95;4.53;;;;;;;5.51;91.51;100692.81;5031746;28;20048;-54
2021/11/22 05:40:19;;;;;;;14.88;5.28;;;;;;;5.44;92.22;100696.47;5030937;28;20049;-58
2021/11/22 05:42:46;;;;;;;11.45;5.18;;;;;;;5.44;92.13;100699.09;5030279;28;20041;-53
2021/11/22 05:45:13;;;;;;;13.43;4.57;;;;;;;5.40;92.33;100689.53;5034749;28;20064;-52
2021/11/22 05:47:39;;;;;;;11.05;4.68;;;;;;;5.46;92.28;100700.78;5033359;28;20043;-53
2021/11/22 05:50:07;;;;;;;12.73;4.82;;;;;;;5.42;92.33;100703.50;5026573;28;20064;-53
2021/11/22 05:52:37;;;;;;;12.43;4.78;;;;;;;5.37;92.75;100705.34;5031056;28;20055;-53
2021/11/22 05:55:08;;;;;;;12.80;5.50;;;;;;;5.36;92.54;100717.63;5029936;28;20566;-55
2021/11/22 05:57:34;;;;;;;9.25;4.50;;;;;;;5.43;92.69;100710.50;5035482;28;20037;-55
2021/11/22 06:00:01;;;;;;;15.25;4.60;;;;;;;5.36;92.23;100722.00;5029647;28;20048;-54
2021/11/22 06:02:27;;;;;;;17.50;4.93;;;;;;;5.36;92.38;100729.88;5034822;28;20805;-52
2021/11/22 06:04:54;;;;;;;11.50;4.93;;;;;;;5.35;92.62;100728.19;5033062;28;20045;-52
2021/11/22 06:07:21;;;;;;;10.63;4.60;;;;;;;5.37;92.34;100731.63;5032170;28;20494;-53
2021/11/22 06:09:47;;;;;;;15.23;5.28;;;;;;;5.32;92.15;100730.88;5029721;28;20045;-54
2021/11/22 06:12:14;;;;;;;9.68;5.05;;;;;;;5.40;92.03;100728.94;5039137;28;20188;-53
2021/11/22 06:14:40;;;;;;;14.50;5.25;;;;;;;5.38;92.55;100742.09;5033832;28;20049;-51
2021/11/22 06:17:07;;;;;;;12.45;5.15;;;;;;;5.38;92.45;100738.59;5039205;28;20055;-53
2021/11/22 06:19:36;;;;;;;11.10;4.55;;;;;;;5.37;92.33;100747.38;5032146;28;20111;-53
2021/11/22 06:22:02;;;;;;;8.02;4.70;;;;;;;5.37;92.46;100752.63;5036093;28;20063;-54
2021/11/22 06:24:29;;;;;;;11.18;5.53;;;;;;;5.33;92.63;100756.22;5036516;28;20087;-54
2021/11/22 06:26:56;;;;;;;10.40;5.15;;;;;;;5.32;93.02;100757.13;5040540;28;20047;-52
2021/11/22 06:29:23;;;;;;;19.65;5.50;;;;;;;5.35;92.30;100770.19;5027616;28;20045;-52
2021/11/22 06:31:50;;;;;;;10.25;4.90;;;;;;;5.31;92.03;100765.91;5021188;28;20044;-52
2021/11/22 06:34:17;;;;;;;10.88;5.32;;;;;;;5.23;92.91;100769.53;5041998;28;20049;-58
2021/11/22 06:36:44;;;;;;;11.73;5.53;;;;;;;5.23;92.67;100780.03;5035363;28;20046;-51
2021/11/22 06:39:10;;;;;;;12.77;5.90;;;;;;;5.19;93.53;100781.00;5026276;28;20076;-54
2021/11/22 06:41:37;;;;;;;15.25;6.28;;;;;;;5.12;92.66;100789.00;5026931;28;20248;-51
2021/11/22 06:44:04;;;;;;;12.68;5.88;;;;;;;5.11;93.52;100792.50;5023946;28;20052;-51
2021/11/22 06:46:31;;;;;;;17.27;6.13;;;;;;;5.09;93.90;100797.78;5019569;28;20495;-53
2021/11/22 06:48:57;;;;;;;10.68;5.47;;;;;;;5.04;94.28;100802.25;5031148;28;20052;-52
2021/11/22 06:51:24;;;;;;;14.23;6.07;;;;;;;5.05;94.03;100816.25;5024476;28;20521;-51
2021/11/22 06:53:50;;;;;;;13.35;6.20;;;;;;;4.97;94.78;100813.75;5033216;28;20052;-53
2021/11/22 06:56:17;;;;;;;12.52;6.68;;;;;;;5.00;94.66;100818.09;5019055;28;20472;-53
2021/11/22 06:58:43;;;;;;;13.73;5.85;;;;;;;5.01;94.92;100825.94;5027556;28;20097;-52
2021/11/22 07:01:10;;;;;;;11.90;6.88;;;;;;;4.99;95.15;100835.59;5017028;28;20060;-54
2021/11/22 07:03:37;;;;;;;14.55;6.18;;;;;;;4.98;94.72;100839.13;5028906;28;20104;-50
2021/11/22 07:06:07;;;;;;;15.32;6.75;;;;;;;5.09;94.76;100841.56;5024117;28;20049;-52
2021/11/22 07:08:34;;;;;;;13.95;6.65;;;;;;;5.13;93.56;100840.63;5025111;28;20057;-51
2021/11/22 07:11:00;;;;;;;18.73;7.20;;;;;;;5.08;93.49;100840.69;5023466;28;20052;-52
2021/11/22 07:13:27;;;;;;;13.50;7.90;;;;;;;5.02;93.78;100848.69;5021493;28;20041;-53
2021/11/22 07:15:54;;;;;;;14.15;7.85;;;;;;;4.93;94.73;100847.06;5019220;28;20049;-54
2021/11/22 07:18:21;;;;;;;22.35;7.47;;;;;;;4.97;95.06;100847.88;5025149;28;20037;-55
2021/11/22 07:20:47;;;;;;;13.15;6.85;;;;;;;5.04;94.89;100865.25;5021457;28;20057;-53
2021/11/22 07:23:15;;;;;;;15.38;7.07;;;;;;;5.15;97.74;100863.31;5018907;28;20071;-54
2021/11/22 07:25:42;;;;;;;12.05;6.90;;;;;;;5.32;100.00;100846.41;5031293;28;20041;-52
2021/11/22 07:28:08;;;;;;;18.15;8.68;;;;;;;5.52;100.00;100849.50;5019931;28;20049;-53
2021/11/22 07:30:36;;;;;;;13.32;7.18;;;;;;;5.71;100.00;100879.78;5024548;28;20049;-53
2021/11/22 07:33:04;;;;;;;14.43;6.53;;;;;;;5.59;94.46;100859.00;5028258;28;20049;-52
2021/11/22 07:35:30;;;;;;;11.43;6.32;;;;;;;5.67;93.87;100883.38;5031521;28;20140;-52
2021/11/22 07:37:57;;;;;;;14.32;6.88;;;;;;;5.72;94.44;100889.41;5031576;28;20045;-53
2021/11/22 07:40:24;;;;;;;9.13;6.18;;;;;;;5.76;92.34;100882.34;5028822;28;20053;-52
2021/11/22 07:42:52;;;;;;;12.15;6.80;;;;;;;5.85;91.54;100890.91;5035773;28;20059;-52
2021/11/22 07:45:20;;;;;;;16.50;7.07;;;;;;;5.74;91.37;100871.84;5030365;28;20055;-52
2021/11/22 07:47:47;;;;;;;16.23;8.02;;;;;;;5.87;91.89;100897.00;5031614;28;20045;-53
2021/11/22 07:50:14;;;;;;;11.48;6.50;;;;;;;5.94;90.12;100888.13;5030628;28;20060;-53
2021/11/22 07:52:40;;;;;;;12.98;6.53;;;;;;;5.91;90.62;100898.69;5029378;28;20045;-52
2021/11/22 07:55:07;;;;;;;14.45;7.05;;;;;;;5.90;90.71;100909.25;5030407;28;20049;-52
2021/11/22 07:57:34;;;;;;;14.75;6.30;;;;;;;5.99;88.57;100917.81;5036170;28;20041;-53
2021/11/22 08:00:00;;;;;;;13.70;7.00;;;;;;;5.99;88.24;100912.53;5029273;28;20045;-53
2021/11/22 08:02:27;;;;;;;11.80;6.75;;;;;;;6.07;91.20;100916.78;5036663;28;20055;-52
2021/11/22 08:04:54;;;;;;;14.73;6.10;;;;;;;6.22;88.82;100929.63;5021276;28;20058;-51
2021/11/22 08:07:22;;;;;;;11.52;6.15;;;;;;;6.40;86.56;100929.25;5028451;28;20462;-52
2021/11/22 08:10:00;;;;;;;10.40;5.90;;;;;;;6.50;86.20;100935.16;5028027;28;20384;-53
2021/11/22 08:12:28;;;;;;;8.55;5.70;;;;;;;6.55;86.89;100949.09;5024818;28;20097;-54
2021/11/22 08:14:57;;;;;;;10.55;6.20;;;;;;;6.60;85.79;100941.97;5040665;28;20038;-53
2021/11/22 08:17:25;;;;;;;10.20;5.60;;;;;;;6.74;83.68;100947.81;5031610;28;20059;-52
2021/11/22 08:19:53;;;;;;;9.27;5.43;;;;;;;6.83;82.48;100941.44;5030403;28;20049;-54
2021/11/22 08:22:23;;;;;;;8.63;4.75;;;;;;;6.92;81.76;100949.16;5032341;28;20044;-53
2021/11/22 08:25:06;;;;;;;5.90;4.70;;;;;;;7.00;81.19;100955.09;5012236;23;20043;-52
2021/11/22 08:27:34;;;;;;;6.40;4.63;;;;;;;7.19;80.30;100959.03;5022754;28;20071;-52
2021/11/22 08:30:05;;;;;;;6.82;4.28;;;;;;;7.21;78.77;100967.75;5009196;28;20402;-54
2021/11/22 08:32:32;;;;;;;9.98;4.22;;;;;;;7.17;79.00;100968.72;4997170;28;20065;-52
2021/11/22 08:34:59;;;;;;;8.10;4.78;;;;;;;7.03;79.32;100982.22;4990878;28;20057;-52
2021/11/22 08:37:25;;;;;;;7.35;4.40;;;;;;;6.98;79.63;100983.22;4994969;28;20856;-52
2021/11/22 08:39:52;;;;;;;7.25;4.25;;;;;;;6.85;80.08;100984.41;4993911;28;20636;-52
2021/11/22 08:42:19;;;;;;;5.70;4.70;;;;;;;6.82;80.82;100984.47;4998404;28;20081;-53
2021/11/22 08:44:45;;;;;;;7.50;4.45;;;;;;;6.81;81.14;100998.53;4998912;28;20048;-53
2021/11/22 08:47:13;;;;;;;6.65;4.70;;;;;;;6.79;80.58;100995.91;4996333;28;20076;-54
2021/11/22 08:49:42;;;;;;;6.82;4.43;;;;;;;6.75;81.33;101009.22;5001760;28;20407;-54
2021/11/22 08:52:10;;;;;;;6.95;4.45;;;;;;;6.77;80.57;101010.88;4998506;28;20092;-53
2021/11/22 08:54:36;;;;;;;5.10;4.43;;;;;;;6.76;80.94;101016.19;4997588;28;20053;-54
2021/11/22 08:57:06;;;;;;;6.65;4.20;;;;;;;6.71;80.82;101020.69;4996526;28;20065;-54
2021/11/22 08:59:33;;;;;;;7.03;4.40;;;;;;;6.69;81.19;101021.59;5004055;28;20044;-52
2021/11/22 09:02:00;;;;;;;5.40;4.18;;;;;;;6.79;81.18;101019.63;5017336;28;20477;-54
2021/11/22 09:04:27;;;;;;;5.03;4.28;;;;;;;6.79;80.49;101032.78;5027336;28;20053;-53
2021/11/22 09:06:57;;;;;;;7.78;4.45;;;;;;;6.84;80.92;101036.19;5023642;28;20041;-52
2021/11/22 09:09:23;;;;;;;6.68;4.68;;;;;;;7.11;79.93;101039.09;5018733;28;20041;-52
2021/11/22 09:11:50;;;;;;;5.82;4.25;;;;;;;7.14;78.97;101018.84;5014224;28;20637;-53
2021/11/22 09:14:17;;;;;;;5.10;4.40;;;;;;;7.31;78.60;101042.16;5004214;28;20062;-54
2021/11/22 09:16:43;;;;;;;7.43;4.22;;;;;;;7.19;78.97;101045.94;5010753;28;20049;-53
2021/11/22 09:19:10;;;;;;;7.70;4.75;;;;;;;7.11;79.02;101050.50;5017809;28;20046;-52
2021/11/22 09:21:36;;;;;;;5.07;3.85;;;;;;;7.18;79.16;101048.63;5015448;28;20517;-52
2021/11/22 09:24:04;;;;;;;5.45;4.40;;;;;;;7.22;78.71;101051.16;5018922;28;20099;-52
2021/11/22 09:26:31;;;;;;;6.22;4.25;;;;;;;7.26;78.59;101062.47;5018625;28;20514;-53
2021/11/22 09:28:58;;;;;;;9.02;5.07;;;;;;;7.39;77.86;101050.75;4995277;28;20061;-51
2021/11/22 09:31:25;;;;;;;6.97;4.60;;;;;;;7.60;76.57;101059.91;4983747;28;20052;-53
2021/11/22 09:33:53;;;;;;;3.88;3.45;;;;;;;7.78;75.29;101064.72;4990726;28;20042;-54
2021/11/22 09:36:22;;;;;;;5.30;3.50;;;;;;;7.74;74.89;101074.47;5008420;28;20415;-51
2021/11/22 09:38:49;;;;;;;6.18;3.80;;;;;;;7.68;75.01;101071.16;5001031;28;20060;-52
2021/11/22 09:41:16;;;;;;;7.22;3.95;;;;;;;7.58;74.87;101072.25;5011855;28;20056;-52
2021/11/22 09:43:45;;;;;;;6.35;3.78;;;;;;;7.43;75.50;101083.16;5017353;28;20405;-52
2021/11/22 09:46:12;;;;;;;4.75;3.60;;;;;;;7.31;76.95;101076.41;5012203;28;20053;-52
2021/11/22 09:48:40;;;;;;;6.05;4.00;;;;;;;7.32;77.61;101083.41;5016855;28;20049;-53
2021/11/22 09:51:12;;;;;;;5.05;3.67;;;;;;;7.34;76.63;101085.13;5010834;28;20045;-52
2021/11/22 09:53:40;;;;;;;5.47;3.90;;;;;;;7.37;77.22;101087.69;5025661;28;20056;-53
2021/11/22 09:56:09;;;;;;;4.68;4.03;;;;;;;7.38;76.15;101094.69;5015841;28;20077;-53
2021/11/22 09:58:36;;;;;;;6.85;3.42;;;;;;;7.27;76.10;101086.13;5015563;28;20076;-53
2021/11/22 10:01:12;;;;;;;4.70;3.20;;;;;;;7.27;76.31;101096.69;5012906;28;20052;-54
2021/11/22 10:03:39;;;;;;;3.92;3.40;;;;;;;7.28;75.99;101097.53;5020271;28;20103;-53
2021/11/22 10:06:05;;;;;;;4.45;3.17;;;;;;;7.23;75.93;101097.66;5017007;28;20052;-52
2021/11/22 10:08:38;;;;;;;4.50;3.17;;;;;;;7.22;75.90;101095.94;5016317;28;20579;-53
2021/11/22 10:11:08;;;;;;;4.43;3.40;;;;;;;7.21;75.88;101096.84;5013744;28;20050;-52
2021/11/22 10:13:41;;;;;;;2.97;2.67;;;;;;;7.14;76.19;101103.13;5018432;28;20049;-51
2021/11/22 10:16:07;;;;;;;3.75;3.05;;;;;;;7.16;75.95;101098.69;5016266;28;20060;-53
2021/11/22 10:18:42;;;;;;;3.72;3.05;;;;;;;7.10;76.41;101104.06;5021555;28;20057;-53
2021/11/22 10:21:14;;;;;;;4.18;3.05;;;;;;;7.12;77.19;101110.19;5006736;28;20063;-55
2021/11/22 10:23:42;;;;;;;5.47;3.13;;;;;;;7.19;76.74;101117.06;5010827;28;20407;-54
2021/11/22 10:26:10;;;;;;;5.00;3.03;;;;;;;7.25;76.82;101110.78;5013661;28;20140;-53
2021/11/22 10:28:39;;;;;;;2.85;2.58;;;;;;;7.30;76.19;101114.19;5015313;28;20049;-53
2021/11/22 10:31:12;;;;;;;5.53;3.10;;;;;;;7.34;76.02;101116.72;5016126;28;20136;-53
2021/11/22 10:33:39;;;;;;;2.83;2.63;;;;;;;7.35;75.49;101099.16;5021276;28;20589;-53
2021/11/22 10:36:10;;;;;;;3.78;3.08;;;;;;;7.47;74.47;101116.44;5014137;28;20042;-54
2021/11/22 10:38:39;;;;;;;4.68;2.83;;;;;;;7.44;74.84;101117.38;5018242;28;20064;-52
2021/11/22 10:41:10;;;;;;;4.13;2.78;;;;;;;7.47;75.24;101121.72;5009313;28;20596;-54
2021/11/22 10:43:49;;;;;;;3.70;2.90;;;;;;;7.53;74.12;101122.47;5011950;28;20073;-53
2021/11/22 10:46:17;;;;;;;3.60;2.88;;;;;;;7.51;74.48;101126.91;5012897;28;20046;-53
2021/11/22 10:48:49;;;;;;;3.95;2.67;;;;;;;7.61;73.95;101124.91;5013868;28;20072;-52
2021/11/22 10:51:23;;;;;;;4.38;2.50;;;;;;;7.70;73.66;101116.78;5004328;28;20076;-54
2021/11/22 10:54:04;;;;;;;3.35;2.58;;;;;;;7.67;73.38;101115.09;5013984;28;20049;-54
2021/11/22 10:56:37;;;;;;;2.80;2.55;;;;;;;7.65;73.57;101121.28;5017205;28;20053;-53
2021/11/22 10:59:05;;;;;;;3.85;2.47;;;;;;;7.67;72.80;101119.50;5018334;28;20046;-52
2021/11/22 11:01:44;;;;;;;2.90;2.10;;;;;;;7.72;72.73;101117.59;5009877;28;20114;-54
2021/11/22 11:04:31;;;;;;;3.35;2.10;;;;;;;7.71;72.84;101122.00;5020852;28;20502;-52
2021/11/22 11:07:01;;;;;;;2.95;2.50;;;;;;;7.78;71.97;101119.22;5016447;28;20045;-52
2021/11/22 11:09:59;;;;;;;2.60;2.30;;;;;;;7.85;72.46;101118.19;5014805;28;21419;-52
2021/11/22 11:12:26;;;;;;;2.78;2.08;;;;;;;7.95;72.07;101117.06;5013768;28;20060;-52
2021/11/22 11:14:58;;;;;;;2.88;2.05;;;;;;;8.06;70.82;101117.66;5021340;28;20053;-54
2021/11/22 11:17:35;;;;;;;3.17;1.95;;;;;;;8.14;70.15;101110.41;5022162;28;20053;-53
2021/11/22 11:20:11;;;;;;;3.72;1.98;;;;;;;8.24;70.02;101116.31;5017674;28;20045;-53
2021/11/22 11:22:38;;;;;;;4.97;1.80;;;;;;;8.46;69.35;101116.66;5014407;28;20055;-54
2021/11/22 11:25:06;;;;;;;1.60;1.50;;;;;;;8.77;68.75;101115.78;5021198;28;20037;-53
2021/11/22 11:27:40;;;;;;;2.88;1.65;;;;;;;9.14;66.60;101115.56;5023362;28;20458;-53
2021/11/22 11:30:09;;;;;;;1.67;1.40;;;;;;;9.15;66.17;101124.34;5019462;28;20048;-52